sensor_id;sensor_type;location;lat;lon;timestamp;pressure;altitude;pressure_sealevel;temperature;humidity
6425;BME280;12193;42.642;23.384;2023-04-07T00:00:23;94133.16;;;3.33;58.94
6425;BME280;12193;42.642;23.384;2023-04-07T00:02:53;94127.69;;;3.28;58.68
6425;BME280;12193;42.642;23.384;2023-04-07T00:05:25;94131.41;;;3.26;58.59
6425;BME280;12193;42.642;23.384;2023-04-07T03:08:42;94116.66;;;1.94;90.19
6425;BME280;12193;42.642;23.384;2023-04-07T03:11:12;94114.72;;;1.72;92.13
6425;BME280;12193;42.642;23.384;2023-04-07T03:13:41;94118.56;;;1.76;91.85
6425;BME280;12193;42.642;23.384;2023-04-07T03:16:11;94109.94;;;1.77;91.81
6425;BME280;12193;42.642;23.384;2023-04-07T03:18:40;94116.97;;;1.83;91.59
6425;BME280;12193;42.642;23.384;2023-04-07T03:21:09;94120.84;;;1.95;90.57
6425;BME280;12193;42.642;23.384;2023-04-07T03:23:41;94118.44;;;1.94;89.57
6425;BME280;12193;42.642;23.384;2023-04-07T03:26:10;94120.34;;;2.00;89.42
6425;BME280;12193;42.642;23.384;2023-04-07T03:28:40;94111.72;;;2.08;89.10
6425;BME280;12193;42.642;23.384;2023-04-07T03:31:09;94116.22;;;2.30;87.44
6425;BME280;12193;42.642;23.384;2023-04-07T03:33:39;94114.63;;;2.13;88.04
6425;BME280;12193;42.642;23.384;2023-04-07T03:36:08;94105.31;;;2.12;87.87
6425;BME280;12193;42.642;23.384;2023-04-07T03:38:42;94109.63;;;2.04;87.77
6425;BME280;12193;42.642;23.384;2023-04-07T03:41:11;94106.91;;;2.37;86.25
6425;BME280;12193;42.642;23.384;2023-04-07T03:43:40;94103.69;;;2.43;85.81
6425;BME280;12193;42.642;23.384;2023-04-07T03:46:09;94104.16;;;2.47;84.56
6425;BME280;12193;42.642;23.384;2023-04-07T03:48:39;94106.91;;;2.45;82.20
6425;BME280;12193;42.642;23.384;2023-04-07T03:51:08;94110.56;;;2.59;72.10
6425;BME280;12193;42.642;23.384;2023-04-07T03:53:37;94110.69;;;2.89;67.34
6425;BME280;12193;42.642;23.384;2023-04-07T03:56:09;94104.66;;;3.12;64.54
6425;BME280;12193;42.642;23.384;2023-04-07T03:58:39;94106.03;;;3.31;63.72
6425;BME280;12193;42.642;23.384;2023-04-07T04:01:10;94107.44;;;3.41;62.85
6425;BME280;12193;42.642;23.384;2023-04-07T04:03:40;94113.75;;;3.31;62.31
6425;BME280;12193;42.642;23.384;2023-04-07T04:06:09;94112.09;;;3.38;61.81
6425;BME280;12193;42.642;23.384;2023-04-07T04:08:38;94119.94;;;3.44;62.19
6425;BME280;12193;42.642;23.384;2023-04-07T04:11:10;94114.25;;;3.57;60.90
6425;BME280;12193;42.642;23.384;2023-04-07T04:13:39;94121.88;;;3.42;61.78
6425;BME280;12193;42.642;23.384;2023-04-07T04:16:09;94113.50;;;3.48;61.37
6425;BME280;12193;42.642;23.384;2023-04-07T04:18:38;94120.97;;;3.66;62.46
6425;BME280;12193;42.642;23.384;2023-04-07T04:21:08;94125.50;;;3.25;72.32
6425;BME280;12193;42.642;23.384;2023-04-07T04:23:37;94133.31;;;1.82;86.97
6425;BME280;12193;42.642;23.384;2023-04-07T04:26:06;94136.47;;;1.60;90.22
6425;BME280;12193;42.642;23.384;2023-04-07T04:28:38;94128.47;;;1.71;91.25
6425;BME280;12193;42.642;23.384;2023-04-07T04:31:07;94132.00;;;1.70;90.61
6425;BME280;12193;42.642;23.384;2023-04-07T04:33:37;94137.13;;;1.70;87.18
6425;BME280;12193;42.642;23.384;2023-04-07T04:36:07;94141.97;;;1.81;82.03
6425;BME280;12193;42.642;23.384;2023-04-07T04:38:37;94145.97;;;1.92;78.13
6425;BME280;12193;42.642;23.384;2023-04-07T04:41:06;94147.25;;;1.96;76.40
6425;BME280;12193;42.642;23.384;2023-04-07T04:43:38;94153.94;;;1.81;75.93
6425;BME280;12193;42.642;23.384;2023-04-07T04:46:07;94148.22;;;2.03;75.76
6425;BME280;12193;42.642;23.384;2023-04-07T04:48:36;94160.56;;;2.07;75.24
6425;BME280;12193;42.642;23.384;2023-04-07T04:51:06;94154.81;;;2.13;75.64
6425;BME280;12193;42.642;23.384;2023-04-07T04:53:35;94163.25;;;1.98;78.50
6425;BME280;12193;42.642;23.384;2023-04-07T04:56:06;94162.09;;;1.84;82.71
6425;BME280;12193;42.642;23.384;2023-04-07T04:58:38;94164.03;;;1.74;84.36
6425;BME280;12193;42.642;23.384;2023-04-07T05:01:11;94164.66;;;1.76;80.84
6425;BME280;12193;42.642;23.384;2023-04-07T05:03:40;94155.88;;;1.95;78.50
6425;BME280;12193;42.642;23.384;2023-04-07T05:06:09;94159.75;;;2.06;79.79
6425;BME280;12193;42.642;23.384;2023-04-07T05:08:39;94162.50;;;2.13;81.51
6425;BME280;12193;42.642;23.384;2023-04-07T05:11:10;94171.44;;;1.93;84.75
6425;BME280;12193;42.642;23.384;2023-04-07T05:13:42;94178.41;;;1.67;87.23
6425;BME280;12193;42.642;23.384;2023-04-07T05:16:11;94173.50;;;1.98;86.86
6425;BME280;12193;42.642;23.384;2023-04-07T05:18:41;94175.91;;;1.91;86.76
6425;BME280;12193;42.642;23.384;2023-04-07T05:21:10;94184.25;;;1.93;87.60
6425;BME280;12193;42.642;23.384;2023-04-07T05:23:40;94186.19;;;1.99;87.36
6425;BME280;12193;42.642;23.384;2023-04-07T05:26:10;94180.75;;;2.10;87.08
6425;BME280;12193;42.642;23.384;2023-04-07T05:28:41;94180.78;;;2.34;85.97
6425;BME280;12193;42.642;23.384;2023-04-07T05:31:11;94182.38;;;2.83;84.02
6425;BME280;12193;42.642;23.384;2023-04-07T05:33:40;94187.13;;;3.09;81.54
6425;BME280;12193;42.642;23.384;2023-04-07T05:36:10;94177.69;;;3.10;79.94
6425;BME280;12193;42.642;23.384;2023-04-07T05:38:39;94184.88;;;3.22;80.93
6425;BME280;12193;42.642;23.384;2023-04-07T05:41:09;94184.53;;;3.72;79.04
6425;BME280;12193;42.642;23.384;2023-04-07T05:43:38;94181.28;;;3.78;76.41
6425;BME280;12193;42.642;23.384;2023-04-07T05:46:10;94173.03;;;4.43;73.41
6425;BME280;12193;42.642;23.384;2023-04-07T05:48:40;94182.44;;;5.10;69.30
6425;BME280;12193;42.642;23.384;2023-04-07T05:51:09;94182.63;;;4.49;70.98
6425;BME280;12193;42.642;23.384;2023-04-07T05:53:38;94184.22;;;4.27;70.46
6425;BME280;12193;42.642;23.384;2023-04-07T05:56:08;94177.06;;;4.60;70.00
6425;BME280;12193;42.642;23.384;2023-04-07T05:58:37;94184.06;;;4.88;68.44
6425;BME280;12193;42.642;23.384;2023-04-07T06:01:06;94183.53;;;4.93;67.54
6425;BME280;12193;42.642;23.384;2023-04-07T06:03:38;94179.44;;;5.64;65.42
6425;BME280;12193;42.642;23.384;2023-04-07T06:06:08;94180.22;;;4.47;68.52
6425;BME280;12193;42.642;23.384;2023-04-07T06:08:38;94177.75;;;4.54;70.34
6425;BME280;12193;42.642;23.384;2023-04-07T06:11:07;94181.91;;;4.10;70.94
6425;BME280;12193;42.642;23.384;2023-04-07T06:13:36;94176.81;;;4.32;70.70
6425;BME280;12193;42.642;23.384;2023-04-07T06:16:06;94180.97;;;5.29;66.61
6425;BME280;12193;42.642;23.384;2023-04-07T06:18:39;94181.41;;;5.91;63.01
6425;BME280;12193;42.642;23.384;2023-04-07T06:21:08;94177.56;;;6.36;60.94
6425;BME280;12193;42.642;23.384;2023-04-07T06:23:37;94181.47;;;5.97;61.64
6425;BME280;12193;42.642;23.384;2023-04-07T06:26:09;94180.19;;;6.08;60.92
6425;BME280;12193;42.642;23.384;2023-04-07T06:28:39;94181.81;;;5.94;60.97
6425;BME280;12193;42.642;23.384;2023-04-07T06:31:08;94177.16;;;6.18;60.79
6425;BME280;12193;42.642;23.384;2023-04-07T06:33:40;94178.97;;;7.08;57.09
6425;BME280;12193;42.642;23.384;2023-04-07T06:36:10;94172.69;;;8.25;53.17
6425;BME280;12193;42.642;23.384;2023-04-07T06:38:39;94174.63;;;8.10;53.08
6425;BME280;12193;42.642;23.384;2023-04-07T06:41:08;94168.84;;;9.07;48.27
6425;BME280;12193;42.642;23.384;2023-04-07T06:43:42;94175.78;;;8.08;49.94
6425;BME280;12193;42.642;23.384;2023-04-07T06:46:12;94172.03;;;9.09;47.53
6425;BME280;12193;42.642;23.384;2023-04-07T06:48:44;94173.03;;;9.01;46.67
6425;BME280;12193;42.642;23.384;2023-04-07T06:51:13;94180.69;;;7.49;50.88
6425;BME280;12193;42.642;23.384;2023-04-07T06:53:43;94176.41;;;7.69;50.66
6425;BME280;12193;42.642;23.384;2023-04-07T06:56:13;94176.22;;;7.71;52.26
6425;BME280;12193;42.642;23.384;2023-04-07T06:58:42;94172.41;;;7.33;52.76
6425;BME280;12193;42.642;23.384;2023-04-07T07:01:12;94176.13;;;6.76;55.37
6425;BME280;12193;42.642;23.384;2023-04-07T07:03:45;94174.44;;;7.71;54.21
6425;BME280;12193;42.642;23.384;2023-04-07T07:06:14;94166.03;;;9.40;49.23
6425;BME280;12193;42.642;23.384;2023-04-07T07:08:43;94170.81;;;10.26;45.53
6425;BME280;12193;42.642;23.384;2023-04-07T07:11:13;94175.69;;;10.84;44.24
6425;BME280;12193;42.642;23.384;2023-04-07T07:13:42;94183.34;;;9.59;45.02
6425;BME280;12193;42.642;23.384;2023-04-07T07:16:11;94178.78;;;9.68;47.11
6425;BME280;12193;42.642;23.384;2023-04-07T07:18:40;94172.69;;;10.50;45.79
6425;BME280;12193;42.642;23.384;2023-04-07T07:21:12;94184.97;;;11.29;43.42
6425;BME280;12193;42.642;23.384;2023-04-07T07:23:42;94194.50;;;11.66;41.33
6425;BME280;12193;42.642;23.384;2023-04-07T07:26:11;94184.56;;;11.56;39.54
6425;BME280;12193;42.642;23.384;2023-04-07T07:28:41;94176.44;;;10.17;42.51
6425;BME280;12193;42.642;23.384;2023-04-07T07:31:10;94181.88;;;10.09;44.12
6425;BME280;12193;42.642;23.384;2023-04-07T07:33:41;94193.38;;;10.32;44.25
6425;BME280;12193;42.642;23.384;2023-04-07T07:36:19;94200.47;;;10.56;44.07
6425;BME280;12193;42.642;23.384;2023-04-07T07:38:49;94194.34;;;9.55;44.65
6425;BME280;12193;42.642;23.384;2023-04-07T07:41:18;94196.66;;;9.89;43.41
6425;BME280;12193;42.642;23.384;2023-04-07T07:43:47;94195.53;;;9.65;42.64
6425;BME280;12193;42.642;23.384;2023-04-07T07:46:17;94195.06;;;9.94;41.03
6425;BME280;12193;42.642;23.384;2023-04-07T07:48:46;94191.94;;;10.73;38.55
6425;BME280;12193;42.642;23.384;2023-04-07T07:51:18;94198.47;;;10.89;36.73
6425;BME280;12193;42.642;23.384;2023-04-07T07:53:48;94205.50;;;11.13;36.23
6425;BME280;12193;42.642;23.384;2023-04-07T07:56:17;94193.53;;;10.43;36.93
6425;BME280;12193;42.642;23.384;2023-04-07T07:58:47;94195.09;;;9.88;38.21
6425;BME280;12193;42.642;23.384;2023-04-07T08:01:17;94195.69;;;9.96;38.11
6425;BME280;12193;42.642;23.384;2023-04-07T08:03:46;94201.13;;;9.62;38.70
6425;BME280;12193;42.642;23.384;2023-04-07T08:06:18;94193.16;;;11.02;36.35
6425;BME280;12193;42.642;23.384;2023-04-07T08:08:48;94187.44;;;13.03;33.65
6425;BME280;12193;42.642;23.384;2023-04-07T08:11:17;94187.59;;;12.32;34.33
6425;BME280;12193;42.642;23.384;2023-04-07T08:13:46;94193.19;;;12.64;33.16
6425;BME280;12193;42.642;23.384;2023-04-07T08:16:16;94195.59;;;11.28;35.66
6425;BME280;12193;42.642;23.384;2023-04-07T08:18:45;94198.00;;;11.23;36.11
6425;BME280;12193;42.642;23.384;2023-04-07T08:21:14;94194.25;;;10.13;36.59
6425;BME280;12193;42.642;23.384;2023-04-07T08:23:47;94190.81;;;10.63;36.46
6425;BME280;12193;42.642;23.384;2023-04-07T08:26:17;94199.50;;;10.81;35.91
6425;BME280;12193;42.642;23.384;2023-04-07T08:28:46;94204.38;;;11.27;35.73
6425;BME280;12193;42.642;23.384;2023-04-07T08:31:16;94197.53;;;10.39;35.49
6425;BME280;12193;42.642;23.384;2023-04-07T08:33:46;94192.81;;;10.24;36.64
6425;BME280;12193;42.642;23.384;2023-04-07T08:36:19;94193.28;;;10.01;36.54
6425;BME280;12193;42.642;23.384;2023-04-07T08:38:51;94189.09;;;10.07;37.70
6425;BME280;12193;42.642;23.384;2023-04-07T08:41:26;94192.69;;;10.06;38.54
6425;BME280;12193;42.642;23.384;2023-04-07T08:43:57;94194.09;;;10.83;37.25
6425;BME280;12193;42.642;23.384;2023-04-07T08:46:29;94191.44;;;10.96;36.75
6425;BME280;12193;42.642;23.384;2023-04-07T08:49:00;94194.34;;;11.61;35.10
6425;BME280;12193;42.642;23.384;2023-04-07T08:51:31;94187.38;;;11.55;35.18
6425;BME280;12193;42.642;23.384;2023-04-07T08:54:08;94190.81;;;11.49;36.22
6425;BME280;12193;42.642;23.384;2023-04-07T08:56:39;94182.88;;;11.13;35.92
6425;BME280;12193;42.642;23.384;2023-04-07T08:59:10;94184.59;;;11.26;36.66
6425;BME280;12193;42.642;23.384;2023-04-07T09:01:40;94195.88;;;12.04;34.76
6425;BME280;12193;42.642;23.384;2023-04-07T09:04:09;94191.03;;;10.92;35.50
6425;BME280;12193;42.642;23.384;2023-04-07T09:06:39;94186.97;;;10.72;35.27
6425;BME280;12193;42.642;23.384;2023-04-07T09:09:10;94189.00;;;11.25;35.01
6425;BME280;12193;42.642;23.384;2023-04-07T09:11:40;94183.97;;;12.33;33.67
6425;BME280;12193;42.642;23.384;2023-04-07T09:14:09;94182.25;;;12.56;33.68
6425;BME280;12193;42.642;23.384;2023-04-07T09:16:39;94194.50;;;11.66;34.21
6425;BME280;12193;42.642;23.384;2023-04-07T09:19:08;94192.41;;;11.74;34.89
6425;BME280;12193;42.642;23.384;2023-04-07T09:21:48;94187.13;;;12.35;33.54
6425;BME280;12193;42.642;23.384;2023-04-07T09:24:24;94189.69;;;13.41;33.11
6425;BME280;12193;42.642;23.384;2023-04-07T09:27:09;94188.22;;;13.67;31.33
6425;BME280;12193;42.642;23.384;2023-04-07T09:29:41;94199.50;;;13.16;32.28
6425;BME280;12193;42.642;23.384;2023-04-07T09:32:11;94204.47;;;11.69;33.52
6425;BME280;12193;42.642;23.384;2023-04-07T09:34:40;94198.97;;;10.29;35.66
6425;BME280;12193;42.642;23.384;2023-04-07T09:37:20;94188.91;;;9.76;36.86
6425;BME280;12193;42.642;23.384;2023-04-07T09:39:52;94194.00;;;10.21;37.29
6425;BME280;12193;42.642;23.384;2023-04-07T09:42:22;94189.19;;;10.31;36.87
6425;BME280;12193;42.642;23.384;2023-04-07T09:44:52;94192.06;;;10.10;37.49
6425;BME280;12193;42.642;23.384;2023-04-07T09:47:25;94193.31;;;9.82;37.71
6425;BME280;12193;42.642;23.384;2023-04-07T09:49:56;94203.50;;;9.77;38.61
6425;BME280;12193;42.642;23.384;2023-04-07T09:52:49;94199.81;;;10.17;37.89
6425;BME280;12193;42.642;23.384;2023-04-07T09:55:22;94209.81;;;10.13;38.98
6425;BME280;12193;42.642;23.384;2023-04-07T09:57:52;94203.50;;;10.40;38.91
6425;BME280;12193;42.642;23.384;2023-04-07T10:00:23;94205.31;;;10.39;38.68
6425;BME280;12193;42.642;23.384;2023-04-07T10:02:54;94210.50;;;10.46;38.78
6425;BME280;12193;42.642;23.384;2023-04-07T10:05:24;94200.06;;;10.59;39.01
6425;BME280;12193;42.642;23.384;2023-04-07T10:07:53;94203.19;;;11.78;38.84
6425;BME280;12193;42.642;23.384;2023-04-07T10:10:26;94196.94;;;12.68;35.94
6425;BME280;12193;42.642;23.384;2023-04-07T10:12:56;94199.69;;;12.55;35.18
6425;BME280;12193;42.642;23.384;2023-04-07T10:15:25;94205.75;;;12.20;35.29
6425;BME280;12193;42.642;23.384;2023-04-07T10:17:55;94206.03;;;12.12;35.87
6425;BME280;12193;42.642;23.384;2023-04-07T10:20:25;94199.66;;;12.26;35.32
6425;BME280;12193;42.642;23.384;2023-04-07T10:23:01;94207.03;;;11.75;34.86
6425;BME280;12193;42.642;23.384;2023-04-07T10:25:36;94202.66;;;11.69;36.19
6425;BME280;12193;42.642;23.384;2023-04-07T10:28:08;94202.38;;;11.04;36.62
6425;BME280;12193;42.642;23.384;2023-04-07T10:30:39;94206.16;;;11.08;37.54
6425;BME280;12193;42.642;23.384;2023-04-07T10:33:10;94203.75;;;10.76;37.45
6425;BME280;12193;42.642;23.384;2023-04-07T10:36:04;94204.91;;;10.42;38.78
6425;BME280;12193;42.642;23.384;2023-04-07T10:38:34;94206.97;;;10.34;39.74
6425;BME280;12193;42.642;23.384;2023-04-07T10:41:36;94198.06;;;9.91;39.63
6425;BME280;12193;42.642;23.384;2023-04-07T10:44:07;94207.09;;;9.69;40.51
6425;BME280;12193;42.642;23.384;2023-04-07T10:47:01;94203.88;;;9.93;40.67
6425;BME280;12193;42.642;23.384;2023-04-07T10:49:31;94207.84;;;10.09;39.87
6425;BME280;12193;42.642;23.384;2023-04-07T10:52:22;94218.44;;;10.07;39.82
6425;BME280;12193;42.642;23.384;2023-04-07T10:55:28;94211.28;;;9.77;40.28
6425;BME280;12193;42.642;23.384;2023-04-07T10:58:17;94210.91;;;9.22;41.29
6425;BME280;12193;42.642;23.384;2023-04-07T11:01:17;94213.72;;;9.33;44.01
6425;BME280;12193;42.642;23.384;2023-04-07T11:03:58;94212.47;;;8.77;45.55
6425;BME280;12193;42.642;23.384;2023-04-07T11:06:30;94223.44;;;8.79;46.08
6425;BME280;12193;42.642;23.384;2023-04-07T11:08:59;94217.28;;;9.38;43.85
6425;BME280;12193;42.642;23.384;2023-04-07T11:11:39;94226.28;;;9.55;43.60
6425;BME280;12193;42.642;23.384;2023-04-07T11:14:24;94224.28;;;9.64;44.22
6425;BME280;12193;42.642;23.384;2023-04-07T11:16:54;94222.47;;;9.71;43.77
6425;BME280;12193;42.642;23.384;2023-04-07T11:19:23;94222.25;;;9.79;42.92
6425;BME280;12193;42.642;23.384;2023-04-07T11:22:14;94222.47;;;9.84;43.24
6425;BME280;12193;42.642;23.384;2023-04-07T11:24:44;94223.78;;;10.19;43.01
6425;BME280;12193;42.642;23.384;2023-04-07T11:27:15;94214.63;;;9.97;42.37
6425;BME280;12193;42.642;23.384;2023-04-07T11:29:46;94211.09;;;9.78;43.13
6425;BME280;12193;42.642;23.384;2023-04-07T11:32:21;94218.28;;;9.63;43.45
6425;BME280;12193;42.642;23.384;2023-04-07T11:34:54;94222.47;;;9.71;44.86
6425;BME280;12193;42.642;23.384;2023-04-07T11:37:25;94221.66;;;9.77;44.56
6425;BME280;12193;42.642;23.384;2023-04-07T11:39:56;94210.63;;;10.07;43.84
6425;BME280;12193;42.642;23.384;2023-04-07T11:42:32;94222.69;;;9.69;43.89
6425;BME280;12193;42.642;23.384;2023-04-07T11:45:05;94215.03;;;10.00;43.24
6425;BME280;12193;42.642;23.384;2023-04-07T11:47:35;94217.00;;;10.18;42.97
6425;BME280;12193;42.642;23.384;2023-04-07T11:50:05;94209.72;;;9.56;43.53
6425;BME280;12193;42.642;23.384;2023-04-07T11:52:40;94212.06;;;9.84;44.14
6425;BME280;12193;42.642;23.384;2023-04-07T11:55:16;94213.72;;;10.41;42.95
6425;BME280;12193;42.642;23.384;2023-04-07T11:57:46;94217.66;;;10.57;42.97
6425;BME280;12193;42.642;23.384;2023-04-07T12:00:19;94213.44;;;10.93;42.06
6425;BME280;12193;42.642;23.384;2023-04-07T12:02:49;94215.31;;;11.66;41.25
6425;BME280;12193;42.642;23.384;2023-04-07T12:05:18;94205.16;;;11.03;41.59
6425;BME280;12193;42.642;23.384;2023-04-07T12:07:52;94220.06;;;10.89;42.18
6425;BME280;12193;42.642;23.384;2023-04-07T12:10:23;94223.72;;;11.13;42.59
6425;BME280;12193;42.642;23.384;2023-04-07T12:12:53;94214.78;;;12.18;39.86
6425;BME280;12193;42.642;23.384;2023-04-07T12:15:25;94225.34;;;11.87;39.76
6425;BME280;12193;42.642;23.384;2023-04-07T12:17:55;94220.00;;;11.57;40.81
6425;BME280;12193;42.642;23.384;2023-04-07T12:20:25;94227.31;;;11.67;40.55
6425;BME280;12193;42.642;23.384;2023-04-07T12:22:54;94219.47;;;11.42;42.16
6425;BME280;12193;42.642;23.384;2023-04-07T12:25:25;94217.53;;;10.76;42.44
6425;BME280;12193;42.642;23.384;2023-04-07T12:27:55;94215.66;;;10.59;43.20
6425;BME280;12193;42.642;23.384;2023-04-07T12:30:27;94223.13;;;10.80;43.33
6425;BME280;12193;42.642;23.384;2023-04-07T12:32:57;94221.91;;;10.38;43.73
6425;BME280;12193;42.642;23.384;2023-04-07T12:35:28;94223.84;;;9.80;45.02
6425;BME280;12193;42.642;23.384;2023-04-07T12:37:58;94218.31;;;9.37;46.14
6425;BME280;12193;42.642;23.384;2023-04-07T12:40:28;94221.09;;;9.36;47.02
6425;BME280;12193;42.642;23.384;2023-04-07T12:42:57;94221.25;;;9.80;45.54
6425;BME280;12193;42.642;23.384;2023-04-07T12:45:29;94214.78;;;10.21;45.64
6425;BME280;12193;42.642;23.384;2023-04-07T12:47:59;94221.13;;;10.38;44.93
6425;BME280;12193;42.642;23.384;2023-04-07T12:50:28;94213.47;;;10.56;44.15
6425;BME280;12193;42.642;23.384;2023-04-07T12:52:57;94219.00;;;10.66;45.02
6425;BME280;12193;42.642;23.384;2023-04-07T12:55:29;94221.69;;;10.46;43.76
6425;BME280;12193;42.642;23.384;2023-04-07T12:57:59;94222.00;;;10.63;43.62
6425;BME280;12193;42.642;23.384;2023-04-07T13:00:30;94228.44;;;10.91;44.35
6425;BME280;12193;42.642;23.384;2023-04-07T13:03:00;94227.75;;;10.78;43.86
6425;BME280;12193;42.642;23.384;2023-04-07T13:05:29;94225.75;;;10.73;43.79
6425;BME280;12193;42.642;23.384;2023-04-07T13:07:59;94221.13;;;10.75;44.97
6425;BME280;12193;42.642;23.384;2023-04-07T13:10:28;94225.03;;;10.53;45.00
6425;BME280;12193;42.642;23.384;2023-04-07T13:12:58;94222.63;;;9.89;45.40
6425;BME280;12193;42.642;23.384;2023-04-07T13:15:30;94228.47;;;9.45;46.41
6425;BME280;12193;42.642;23.384;2023-04-07T13:17:59;94234.66;;;9.38;47.68
6425;BME280;12193;42.642;23.384;2023-04-07T13:20:29;94233.88;;;9.57;47.46
6425;BME280;12193;42.642;23.384;2023-04-07T13:22:58;94232.66;;;9.59;46.83
6425;BME280;12193;42.642;23.384;2023-04-07T13:25:27;94230.66;;;9.74;47.45
6425;BME280;12193;42.642;23.384;2023-04-07T13:27:57;94227.44;;;10.05;46.14
6425;BME280;12193;42.642;23.384;2023-04-07T13:30:26;94232.00;;;10.09;45.73
6425;BME280;12193;42.642;23.384;2023-04-07T13:32:59;94231.03;;;9.84;46.27
6425;BME280;12193;42.642;23.384;2023-04-07T13:35:28;94239.25;;;9.55;47.06
6425;BME280;12193;42.642;23.384;2023-04-07T13:38:01;94241.84;;;9.36;47.89
6425;BME280;12193;42.642;23.384;2023-04-07T13:40:30;94236.84;;;9.28;49.10
6425;BME280;12193;42.642;23.384;2023-04-07T13:42:59;94248.25;;;9.27;49.58
6425;BME280;12193;42.642;23.384;2023-04-07T13:45:29;94243.44;;;9.30;48.85
6425;BME280;12193;42.642;23.384;2023-04-07T13:48:01;94256.59;;;9.10;49.50
6425;BME280;12193;42.642;23.384;2023-04-07T13:50:31;94249.97;;;8.94;50.56
6425;BME280;12193;42.642;23.384;2023-04-07T13:53:00;94255.69;;;8.70;52.01
6425;BME280;12193;42.642;23.384;2023-04-07T13:55:29;94256.16;;;8.93;51.05
6425;BME280;12193;42.642;23.384;2023-04-07T13:57:59;94257.97;;;8.93;50.95
6425;BME280;12193;42.642;23.384;2023-04-07T14:00:29;94256.56;;;8.90;50.12
6425;BME280;12193;42.642;23.384;2023-04-07T14:03:03;94262.78;;;9.02;50.43
6425;BME280;12193;42.642;23.384;2023-04-07T14:05:33;94265.50;;;8.75;50.79
6425;BME280;12193;42.642;23.384;2023-04-07T14:08:02;94273.41;;;8.60;52.20
6425;BME280;12193;42.642;23.384;2023-04-07T14:10:31;94274.63;;;8.64;52.42
6425;BME280;12193;42.642;23.384;2023-04-07T14:13:01;94276.03;;;8.67;52.33
6425;BME280;12193;42.642;23.384;2023-04-07T14:15:31;94278.28;;;8.36;52.60
6425;BME280;12193;42.642;23.384;2023-04-07T14:18:03;94286.09;;;8.42;53.97
6425;BME280;12193;42.642;23.384;2023-04-07T14:20:32;94288.13;;;8.53;53.30
6425;BME280;12193;42.642;23.384;2023-04-07T14:23:01;94296.03;;;8.39;54.44
6425;BME280;12193;42.642;23.384;2023-04-07T14:25:31;94287.50;;;8.45;54.92
6425;BME280;12193;42.642;23.384;2023-04-07T14:28:00;94288.75;;;8.55;54.24
6425;BME280;12193;42.642;23.384;2023-04-07T14:30:29;94297.34;;;8.62;54.03
6425;BME280;12193;42.642;23.384;2023-04-07T14:33:02;94304.06;;;8.50;55.03
6425;BME280;12193;42.642;23.384;2023-04-07T14:35:32;94299.94;;;8.62;54.37
6425;BME280;12193;42.642;23.384;2023-04-07T14:38:01;94295.03;;;8.40;55.76
6425;BME280;12193;42.642;23.384;2023-04-07T14:40:30;94312.00;;;8.42;55.79
6425;BME280;12193;42.642;23.384;2023-04-07T14:43:00;94307.16;;;8.06;57.21
6425;BME280;12193;42.642;23.384;2023-04-07T14:45:32;94310.75;;;8.32;58.04
6425;BME280;12193;42.642;23.384;2023-04-07T14:48:04;94305.97;;;8.35;57.83
6425;BME280;12193;42.642;23.384;2023-04-07T14:50:34;94304.06;;;8.50;57.74
6425;BME280;12193;42.642;23.384;2023-04-07T14:53:03;94304.25;;;8.49;57.58
6425;BME280;12193;42.642;23.384;2023-04-07T14:55:33;94308.56;;;8.35;57.70
6425;BME280;12193;42.642;23.384;2023-04-07T14:58:03;94321.88;;;8.26;58.33
6425;BME280;12193;42.642;23.384;2023-04-07T15:00:32;94320.59;;;8.49;57.74
6425;BME280;12193;42.642;23.384;2023-04-07T15:03:04;94318.16;;;8.41;58.13
6425;BME280;12193;42.642;23.384;2023-04-07T15:05:33;94328.28;;;8.36;58.51
6425;BME280;12193;42.642;23.384;2023-04-07T15:08:03;94327.47;;;8.36;59.04
6425;BME280;12193;42.642;23.384;2023-04-07T15:10:32;94328.78;;;8.53;58.90
6425;BME280;12193;42.642;23.384;2023-04-07T15:13:02;94324.91;;;8.83;58.08
6425;BME280;12193;42.642;23.384;2023-04-07T15:15:31;94320.47;;;8.70;58.54
6425;BME280;12193;42.642;23.384;2023-04-07T15:18:01;94330.22;;;8.22;60.66
6425;BME280;12193;42.642;23.384;2023-04-07T15:20:33;94330.47;;;8.06;61.58
6425;BME280;12193;42.642;23.384;2023-04-07T15:23:02;94331.97;;;8.21;62.04
6425;BME280;12193;42.642;23.384;2023-04-07T15:25:32;94330.66;;;8.04;63.62
6425;BME280;12193;42.642;23.384;2023-04-07T15:28:01;94328.13;;;7.83;64.03
6425;BME280;12193;42.642;23.384;2023-04-07T15:30:30;94335.34;;;7.67;64.96
6425;BME280;12193;42.642;23.384;2023-04-07T15:33:02;94335.25;;;7.54;65.66
6425;BME280;12193;42.642;23.384;2023-04-07T15:35:34;94334.84;;;7.50;65.21
6425;BME280;12193;42.642;23.384;2023-04-07T15:38:03;94337.09;;;7.60;65.23
6425;BME280;12193;42.642;23.384;2023-04-07T15:40:34;94329.41;;;7.45;64.98
6425;BME280;12193;42.642;23.384;2023-04-07T15:43:04;94334.47;;;7.53;64.73
6425;BME280;12193;42.642;23.384;2023-04-07T15:45:39;94340.84;;;7.36;64.69
6425;BME280;12193;42.642;23.384;2023-04-07T15:48:09;94346.28;;;7.41;64.20
6425;BME280;12193;42.642;23.384;2023-04-07T15:50:42;94344.00;;;7.32;64.77
6425;BME280;12193;42.642;23.384;2023-04-07T15:53:11;94349.22;;;7.18;66.02
6425;BME280;12193;42.642;23.384;2023-04-07T15:55:41;94344.97;;;7.10;67.07
6425;BME280;12193;42.642;23.384;2023-04-07T15:58:10;94353.00;;;7.15;67.18
6425;BME280;12193;42.642;23.384;2023-04-07T16:00:40;94342.22;;;7.12;66.88
6425;BME280;12193;42.642;23.384;2023-04-07T16:03:09;94354.75;;;7.15;67.24
6425;BME280;12193;42.642;23.384;2023-04-07T16:05:41;94355.81;;;7.20;67.29
6425;BME280;12193;42.642;23.384;2023-04-07T16:08:11;94360.97;;;6.99;68.00
6425;BME280;12193;42.642;23.384;2023-04-07T16:10:40;94360.22;;;7.05;68.05
6425;BME280;12193;42.642;23.384;2023-04-07T16:13:10;94364.03;;;7.09;67.40
6425;BME280;12193;42.642;23.384;2023-04-07T16:15:39;94369.22;;;7.09;67.80
6425;BME280;12193;42.642;23.384;2023-04-07T16:18:09;94363.88;;;7.11;67.76
6425;BME280;12193;42.642;23.384;2023-04-07T16:20:41;94370.75;;;7.04;67.42
6425;BME280;12193;42.642;23.384;2023-04-07T16:23:12;94376.53;;;7.06;67.74
6425;BME280;12193;42.642;23.384;2023-04-07T16:25:41;94372.41;;;7.11;66.79
6425;BME280;12193;42.642;23.384;2023-04-07T16:28:11;94384.00;;;7.15;66.71